Moorpark, CA (93020)

4:45 AM PDT on July 29, 2016 (GMT -0700)
APRSWXNET | | Change Station

Elev 540 ft 34.29 °N, 118.88 °W | Updated 42 minutes ago

Clear
Clear
65 °F
Feels Like 65 °F
N
0
Wind Variable Wind from West
Gusts 0.0 mph

Today
High -- | Low -- °F
--% Chance of Precip.
Yesterday
High -- | Low -- °F
Precip. -- in
Pressure 29.85 in
Visibility 9.0 miles
Clouds Clear
Dew Point 60 °F
Humidity 84%
Rainfall in
Snow Depth Not available.
6:04 AM 7:58 PM
Waning Crescent, 22% visible
METAR KCMA 291055Z AUTO 00000KT 9SM CLR 18/16 A2983 RMK AO2 SLP108 T01830161
Pressure 29.85 in
Visibility 9.0 miles
Clouds Clear
Dew Point 60 °F
Humidity 84%
Rainfall in
Snow Depth Not available.
6:04 AM 7:58 PM
Waning Crescent, 22% visible
METAR KCMA 291055Z AUTO 00000KT 9SM CLR 18/16 A2983 RMK AO2 SLP108 T01830161

10-Day Weather Forecast

Almanac

Astronomy

Jul. 29, 2016 Rise Set
Actual Time
Civil Twilight
Nautical Twilight
Astronomical Twilight
Moon
Length of Visible Light
Length of Day
Tomorrow will be .
, % of the Moon is Illuminated

Today's Extremes

State Highs State Lows

Community

WunderPhotos

Upload Photos

1,928,325 photos uploaded!

WunderBlog® & News

Nearby

Air Quality

  Air Quality AQ Index Pollutant
Not available.

Snow Depth

Station Depth Elevation

Earthquake Activity

City Distance Mag. Time & Date
Minimum magnitude displayed is 2.5.

Coastal Water Temperatures

Place Temperature

Stations

Nearby Weather Stations

Station Location Temp. Windchill Dew Point Humidity Wind Precip. Elev Updated Type
                   

Watches & Warnings

There are currently no watches in effect.